createdAt,value
2022-09-28T00:02:01.571Z,27.71
2022-09-28T00:04:50.504Z,27.82
2022-09-28T00:07:32.768Z,27.83
2022-09-28T00:10:21.504Z,27.72
2022-09-28T00:13:10.546Z,27.83
2022-09-28T00:16:17.103Z,27.96
2022-09-28T00:19:00.503Z,27.70
2022-09-28T00:21:50.417Z,27.67
2022-09-28T00:24:39.405Z,27.80
2022-09-28T00:27:28.394Z,27.72
2022-09-28T00:30:18.518Z,27.62
2022-09-28T00:33:00.708Z,27.88
2022-09-28T00:35:50.526Z,27.67
2022-09-28T00:38:41.670Z,27.86
2022-09-28T00:41:24.390Z,27.65
2022-09-28T00:44:33.435Z,27.58
2022-09-28T00:47:48.484Z,27.62
2022-09-28T00:50:44.415Z,27.49
2022-09-28T00:53:38.407Z,27.42
2022-09-28T00:56:25.356Z,27.68
2022-09-28T00:59:16.660Z,27.83
2022-09-28T01:01:59.163Z,27.72
2022-09-28T01:04:48.413Z,27.73
2022-09-28T01:07:39.806Z,27.85
2022-09-28T01:10:23.505Z,27.94
2022-09-28T01:13:05.893Z,27.67
2022-09-28T01:16:21.582Z,27.97
2022-09-28T01:19:26.333Z,27.95
2022-09-28T01:22:43.494Z,27.91
2022-09-28T01:25:58.788Z,27.98
2022-09-28T01:28:41.550Z,28.11
2022-09-28T01:31:31.742Z,28.06
2022-09-28T01:34:33.486Z,27.92
2022-09-28T01:37:27.481Z,28.02
2022-09-28T01:40:12.770Z,27.96
2022-09-28T01:43:12.492Z,27.98
2022-09-28T01:46:07.798Z,28.14
2022-09-28T01:49:01.503Z,28.19
2022-09-28T01:51:59.496Z,28.21
2022-09-28T01:55:14.784Z,28.25
2022-09-28T01:58:19.839Z,28.40
2022-09-28T02:01:16.085Z,28.56
2022-09-28T02:04:22.473Z,28.45
2022-09-28T02:07:21.824Z,28.71
2022-09-28T02:10:09.496Z,28.58
2022-09-28T02:13:13.762Z,28.82
2022-09-28T02:16:05.551Z,28.85
2022-09-28T02:18:48.513Z,28.93
2022-09-28T02:21:40.487Z,28.87
2022-09-28T02:24:33.555Z,29.01
2022-09-28T02:27:32.494Z,29.22
2022-09-28T02:30:21.772Z,29.25
2022-09-28T02:33:13.489Z,29.12
2022-09-28T02:35:59.104Z,29.20
2022-09-28T02:38:52.482Z,29.14
2022-09-28T02:41:54.340Z,29.14
2022-09-28T02:45:18.470Z,29.34
2022-09-28T02:48:55.763Z,29.54
2022-09-28T02:52:02.933Z,29.41
2022-09-28T02:55:15.477Z,29.61
2022-09-28T02:58:04.620Z,29.81
2022-09-28T03:00:57.524Z,29.64
2022-09-28T03:03:56.779Z,29.49
2022-09-28T03:07:14.496Z,29.81
2022-09-28T03:10:17.926Z,29.93
2022-09-28T03:13:08.486Z,30.13
2022-09-28T03:15:57.464Z,30.05
2022-09-28T03:18:47.487Z,30.26
2022-09-28T03:21:36.496Z,30.11
2022-09-28T03:24:25.475Z,30.25
2022-09-28T03:27:07.755Z,30.37
2022-09-28T03:29:56.471Z,30.49
2022-09-28T03:32:38.992Z,30.64
2022-09-28T03:35:28.479Z,30.73
2022-09-28T03:38:10.689Z,30.89
2022-09-28T03:41:11.479Z,31.05
2022-09-28T03:44:00.366Z,31.11
2022-09-28T03:46:42.906Z,31.03
2022-09-28T03:49:31.377Z,31.04
2022-09-28T03:52:13.782Z,31.01
2022-09-28T03:55:02.470Z,30.97
2022-09-28T03:57:51.474Z,31.17
2022-09-28T04:00:33.888Z,31.06
2022-09-28T04:03:22.487Z,31.36
2022-09-28T04:06:04.738Z,31.49
2022-09-28T04:08:53.476Z,31.57
2022-09-28T04:12:02.290Z,31.70
2022-09-28T04:14:45.479Z,31.94
2022-09-28T04:17:37.756Z,31.82
2022-09-28T04:20:35.390Z,32.07
2022-09-28T04:23:21.525Z,32.21
2022-09-28T04:26:10.504Z,32.41
2022-09-28T04:29:18.345Z,32.66
2022-09-28T04:32:05.589Z,32.95
2022-09-28T04:34:55.949Z,33.15
2022-09-28T04:37:39.500Z,33.58
2022-09-28T04:40:21.806Z,33.53
2022-09-28T04:43:11.473Z,34.06
2022-09-28T04:46:05.550Z,33.63
2022-09-28T04:49:07.514Z,33.60
2022-09-28T04:51:57.724Z,34.13
2022-09-28T04:54:48.493Z,34.09
2022-09-28T04:57:32.652Z,34.04
2022-09-28T05:00:22.471Z,34.11
2022-09-28T05:03:15.723Z,34.27
2022-09-28T05:06:30.383Z,34.87
2022-09-28T05:09:21.486Z,34.96
2022-09-28T05:12:03.832Z,33.65
2022-09-28T05:14:53.470Z,34.17
2022-09-28T05:17:42.487Z,34.49
2022-09-28T05:20:56.481Z,35.25
2022-09-28T05:23:47.421Z,34.38
2022-09-28T05:26:37.396Z,34.78
2022-09-28T05:29:33.495Z,34.09
2022-09-28T05:32:40.483Z,34.89
2022-09-28T05:35:53.830Z,34.80
2022-09-28T05:38:45.477Z,35.45
2022-09-28T05:41:27.940Z,34.86
2022-09-28T05:44:10.592Z,34.97
2022-09-28T05:47:07.491Z,34.94
2022-09-28T05:49:49.697Z,35.16
2022-09-28T05:52:38.532Z,34.99
2022-09-28T05:55:29.989Z,35.10
2022-09-28T05:58:14.579Z,35.20
2022-09-28T06:00:57.655Z,35.53
2022-09-28T06:03:46.480Z,35.88
2022-09-28T06:06:31.675Z,35.52
2022-09-28T06:09:25.155Z,35.37
2022-09-28T06:12:13.673Z,35.15
2022-09-28T06:15:07.491Z,35.24
2022-09-28T06:17:56.385Z,35.39
2022-09-28T06:20:56.472Z,35.31
2022-09-28T06:23:49.490Z,35.61
2022-09-28T06:26:33.474Z,35.80
2022-09-28T06:29:20.249Z,35.79
2022-09-28T06:32:09.393Z,35.70
2022-09-28T06:34:56.432Z,35.90
2022-09-28T06:37:45.411Z,35.82
2022-09-28T06:40:37.323Z,35.59
2022-09-28T06:43:23.388Z,35.56
2022-09-28T06:46:22.033Z,35.04
2022-09-28T06:49:29.479Z,35.89
2022-09-28T06:52:29.663Z,35.31
2022-09-28T06:55:22.489Z,35.24
2022-09-28T06:58:08.581Z,35.41
2022-09-28T07:00:57.452Z,35.58
2022-09-28T07:03:57.549Z,35.57
2022-09-28T07:07:00.167Z,35.71
2022-09-28T07:10:17.488Z,35.73
2022-09-28T07:13:45.071Z,35.25
2022-09-28T07:16:31.773Z,35.80
2022-09-28T07:19:17.892Z,35.92
2022-09-28T07:22:06.423Z,35.53
2022-09-28T07:24:57.645Z,35.67
2022-09-28T07:27:52.065Z,35.57
2022-09-28T07:30:52.599Z,35.28
2022-09-28T07:33:54.926Z,35.48
2022-09-28T07:36:47.518Z,35.14
2022-09-28T07:39:29.732Z,34.66
2022-09-28T07:42:18.548Z,35.21
2022-09-28T07:45:08.770Z,34.42
2022-09-28T07:48:05.421Z,34.52
2022-09-28T07:51:15.783Z,34.85
2022-09-28T07:54:35.480Z,34.61
2022-09-28T07:57:40.380Z,34.51
2022-09-28T08:00:47.662Z,34.61
2022-09-28T08:03:30.916Z,34.70
2022-09-28T08:06:22.497Z,34.79
2022-09-28T08:09:06.795Z,34.52
2022-09-28T08:12:15.497Z,34.48
2022-09-28T08:15:23.472Z,34.59
2022-09-28T08:18:19.372Z,34.65
2022-09-28T08:21:27.379Z,34.20
2022-09-28T08:24:16.400Z,34.46
2022-09-28T08:27:01.489Z,34.47
2022-09-28T08:29:51.871Z,34.00
2022-09-28T08:32:58.489Z,34.17
2022-09-28T08:36:00.936Z,34.55
2022-09-28T08:39:42.470Z,34.47
2022-09-28T08:43:06.447Z,34.50
2022-09-28T08:46:15.521Z,34.20
2022-09-28T08:49:42.995Z,34.84
2022-09-28T08:52:42.468Z,34.64
2022-09-28T08:56:10.372Z,34.02
2022-09-28T08:59:05.410Z,34.20
2022-09-28T09:02:10.807Z,34.04
2022-09-28T09:04:53.397Z,34.38
2022-09-28T09:08:09.863Z,34.38
2022-09-28T09:11:32.499Z,34.44
2022-09-28T09:14:45.077Z,34.21
2022-09-28T09:17:33.500Z,34.47
2022-09-28T09:20:53.970Z,34.17
2022-09-28T09:24:00.478Z,34.00
2022-09-28T09:26:42.992Z,33.89
2022-09-28T09:29:57.478Z,34.25
2022-09-28T09:33:09.792Z,33.98
2022-09-28T09:36:29.486Z,34.42
2022-09-28T09:40:03.737Z,34.16
2022-09-28T09:43:31.552Z,34.40
2022-09-28T09:47:15.384Z,34.16
2022-09-28T09:50:25.491Z,34.33
2022-09-28T09:53:26.810Z,34.37
2022-09-28T09:56:42.491Z,34.36
2022-09-28T09:59:35.778Z,34.33
2022-09-28T10:02:39.462Z,34.11
2022-09-28T10:05:41.809Z,34.14
2022-09-28T10:08:32.490Z,34.22
2022-09-28T10:11:20.045Z,34.37
2022-09-28T10:14:11.491Z,34.42
2022-09-28T10:17:02.997Z,34.08
2022-09-28T10:20:27.481Z,33.88
2022-09-28T10:23:48.402Z,33.98
2022-09-28T10:26:48.402Z,34.09
2022-09-28T10:29:35.761Z,34.27
2022-09-28T10:32:32.399Z,34.07
2022-09-28T10:35:26.900Z,33.92
2022-09-28T10:38:27.406Z,34.14
2022-09-28T10:41:30.357Z,34.02
2022-09-28T10:44:29.378Z,33.91
2022-09-28T10:47:36.745Z,33.87
2022-09-28T10:50:34.503Z,33.86
2022-09-28T10:53:29.782Z,33.73
2022-09-28T10:56:45.480Z,33.63
2022-09-28T10:59:49.774Z,33.49
2022-09-28T11:02:46.593Z,33.50
2022-09-28T11:05:34.811Z,33.37
2022-09-28T11:08:33.368Z,33.38
2022-09-28T11:11:19.173Z,33.33
2022-09-28T11:14:37.208Z,33.16
2022-09-28T11:17:31.756Z,33.11
2022-09-28T11:20:33.367Z,33.00
2022-09-28T11:23:27.750Z,33.11
2022-09-28T11:26:30.388Z,33.09
2022-09-28T11:29:13.747Z,33.03
2022-09-28T11:32:16.035Z,32.95
2022-09-28T11:35:27.819Z,32.96
2022-09-28T11:38:43.461Z,33.00
2022-09-28T11:42:28.758Z,32.99
2022-09-28T11:45:42.530Z,32.83
2022-09-28T11:48:58.823Z,32.90
2022-09-28T11:51:48.377Z,32.88
2022-09-28T11:54:59.512Z,32.85
2022-09-28T11:57:50.832Z,32.82
2022-09-28T12:00:43.484Z,32.64
2022-09-28T12:03:34.012Z,32.71
2022-09-28T12:06:27.484Z,32.58
2022-09-28T12:09:24.796Z,32.55
2022-09-28T12:12:43.354Z,32.50
2022-09-28T12:15:38.219Z,32.40
2022-09-28T12:18:47.490Z,32.44
2022-09-28T12:21:52.350Z,32.47
2022-09-28T12:24:53.453Z,32.60
2022-09-28T12:27:44.979Z,32.50
2022-09-28T12:30:38.412Z,32.46
2022-09-28T12:33:29.778Z,32.54
2022-09-28T12:36:31.502Z,32.49
2022-09-28T12:39:53.930Z,32.42
2022-09-28T12:43:30.040Z,32.47
2022-09-28T12:46:40.486Z,32.53
2022-09-28T12:53:17.528Z,32.45
2022-09-28T12:56:20.923Z,32.37
2022-09-28T12:59:33.381Z,32.21
2022-09-28T13:02:50.544Z,32.18
2022-09-28T13:06:01.973Z,32.14
2022-09-28T13:09:03.522Z,32.09
2022-09-28T13:12:18.540Z,32.01
2022-09-28T13:15:25.500Z,31.97
2022-09-28T13:18:17.564Z,31.87
2022-09-28T13:21:27.359Z,31.71
2022-09-28T13:24:32.076Z,31.66
2022-09-28T13:27:32.991Z,31.68
2022-09-28T13:30:17.922Z,31.60
2022-09-28T13:33:09.966Z,31.53
2022-09-28T13:35:52.449Z,31.45
2022-09-28T13:38:55.053Z,31.42
2022-09-28T13:41:44.468Z,31.37
2022-09-28T13:44:48.233Z,31.35
2022-09-28T13:47:55.411Z,31.35
2022-09-28T13:51:14.648Z,31.29
2022-09-28T13:54:27.905Z,31.18
2022-09-28T13:57:33.563Z,31.16
2022-09-28T14:00:25.866Z,31.08
2022-09-28T14:03:31.496Z,31.05
2022-09-28T14:06:32.852Z,31.03
2022-09-28T14:09:21.563Z,31.03
2022-09-28T14:12:11.782Z,30.93
2022-09-28T14:15:00.464Z,30.91
2022-09-28T14:17:58.460Z,31.10
2022-09-28T14:21:02.589Z,30.98
2022-09-28T14:24:31.822Z,30.91
2022-09-28T14:27:28.525Z,30.88
2022-09-28T14:30:20.554Z,30.78
2022-09-28T14:33:06.920Z,30.78
2022-09-28T14:36:04.626Z,30.72
2022-09-28T14:39:16.747Z,30.66
2022-09-28T14:42:05.416Z,30.68
2022-09-28T14:45:12.879Z,30.67
2022-09-28T14:48:23.450Z,30.62
2022-09-28T14:51:36.540Z,30.56
2022-09-28T14:54:31.457Z,30.47
2022-09-28T14:57:24.983Z,30.40
2022-09-28T15:00:23.495Z,30.43
2022-09-28T15:03:12.996Z,30.42
2022-09-28T15:06:04.103Z,30.39
2022-09-28T15:08:47.881Z,30.36
2022-09-28T15:11:36.441Z,30.39
2022-09-28T15:14:19.943Z,30.46
2022-09-28T15:17:16.497Z,30.37
2022-09-28T15:20:09.875Z,30.44
2022-09-28T15:23:05.399Z,30.43
2022-09-28T15:25:48.836Z,30.36
2022-09-28T15:28:38.572Z,30.38
2022-09-28T15:31:28.840Z,30.30
2022-09-28T15:34:55.877Z,30.32
2022-09-28T15:37:50.479Z,30.30
2022-09-28T15:40:52.543Z,30.31
2022-09-28T15:43:38.202Z,30.31
2022-09-28T15:46:36.593Z,30.30
2022-09-28T15:49:51.474Z,30.23
2022-09-28T15:52:54.066Z,30.17
2022-09-28T15:55:52.406Z,30.17
2022-09-28T15:58:42.532Z,30.15
2022-09-28T16:01:40.796Z,30.16
2022-09-28T16:04:48.466Z,30.16
2022-09-28T16:07:40.060Z,30.11
2022-09-28T16:10:30.495Z,30.07
2022-09-28T16:13:31.426Z,30.06
2022-09-28T16:16:26.585Z,30.08
2022-09-28T16:19:10.277Z,30.02
2022-09-28T16:22:06.242Z,30.06
2022-09-28T16:24:48.954Z,29.95
2022-09-28T16:27:52.518Z,30.01
2022-09-28T16:30:43.034Z,29.96
2022-09-28T16:33:39.095Z,30.00
2022-09-28T16:36:28.099Z,29.90
2022-09-28T16:39:20.671Z,29.92
2022-09-28T16:42:09.830Z,29.92
2022-09-28T16:44:58.512Z,29.93
2022-09-28T16:47:48.505Z,29.89
2022-09-28T16:50:44.441Z,29.91
2022-09-28T16:53:52.563Z,29.93
2022-09-28T16:56:36.377Z,29.89
2022-09-28T16:59:25.547Z,29.92
2022-09-28T17:02:08.920Z,29.66
2022-09-28T17:04:57.583Z,29.67
2022-09-28T17:07:46.407Z,29.58
2022-09-28T17:11:13.821Z,29.72
2022-09-28T17:14:06.541Z,29.78
2022-09-28T17:17:13.785Z,29.81
2022-09-28T17:19:56.524Z,29.77
2022-09-28T17:22:38.921Z,29.72
2022-09-28T17:25:27.597Z,29.76
2022-09-28T17:28:27.052Z,29.80
2022-09-28T17:31:09.516Z,29.61
2022-09-28T17:34:23.129Z,29.57
2022-09-28T17:37:06.509Z,29.54
2022-09-28T17:39:49.076Z,29.63
2022-09-28T17:42:43.891Z,29.57
2022-09-28T17:45:29.607Z,29.55
2022-09-28T17:48:19.694Z,29.57
2022-09-28T17:51:16.532Z,29.60
2022-09-28T17:54:08.797Z,29.45
2022-09-28T17:56:51.058Z,29.43
2022-09-28T17:59:40.634Z,29.42
2022-09-28T18:02:29.478Z,29.40
2022-09-28T18:05:21.466Z,29.37
2022-09-28T18:08:12.493Z,29.32
2022-09-28T18:10:55.734Z,29.31
2022-09-28T18:16:35.461Z,29.34
2022-09-28T18:19:17.914Z,29.27
2022-09-28T18:22:06.451Z,29.32
2022-09-28T18:24:57.480Z,29.29
2022-09-28T18:27:39.699Z,29.22
2022-09-28T18:30:28.480Z,29.15
2022-09-28T18:33:18.456Z,29.26
2022-09-28T18:36:09.455Z,29.17
2022-09-28T18:38:58.494Z,29.12
2022-09-28T18:41:40.822Z,29.10
2022-09-28T18:44:29.479Z,29.20
2022-09-28T18:47:14.649Z,29.18
2022-09-28T18:50:05.514Z,29.19
2022-09-28T18:52:55.398Z,29.23
2022-09-28T18:55:40.305Z,29.25
2022-09-28T18:58:29.454Z,29.25
2022-09-28T19:01:30.438Z,29.14
2022-09-28T19:04:16.909Z,29.11
2022-09-28T19:07:06.378Z,29.16
2022-09-28T19:09:48.904Z,29.10
2022-09-28T19:12:37.479Z,29.02
2022-09-28T19:15:20.655Z,29.04
2022-09-28T19:18:09.442Z,29.04
2022-09-28T19:20:51.894Z,29.00
2022-09-28T19:23:42.371Z,29.03
2022-09-28T19:26:34.719Z,28.97
2022-09-28T19:29:27.466Z,28.96
2022-09-28T19:32:19.343Z,29.01
2022-09-28T19:35:09.416Z,29.00
2022-09-28T19:37:54.457Z,28.94
2022-09-28T19:40:45.640Z,28.94
2022-09-28T19:43:27.901Z,28.83
2022-09-28T19:46:16.472Z,28.89
2022-09-28T19:49:05.369Z,28.85
2022-09-28T19:52:13.916Z,28.88
2022-09-28T19:55:05.450Z,28.95
2022-09-28T19:57:49.072Z,28.79
2022-09-28T20:00:37.429Z,28.75
2022-09-28T20:03:29.357Z,28.72
2022-09-28T20:06:18.324Z,28.72
2022-09-28T20:09:07.836Z,28.76
2022-09-28T20:11:50.343Z,28.87
2022-09-28T20:14:37.976Z,28.83
2022-09-28T20:17:29.334Z,28.73
2022-09-28T20:20:26.354Z,28.75
2022-09-28T20:23:15.781Z,28.75
2022-09-28T20:26:00.444Z,28.77
2022-09-28T20:28:43.966Z,28.80
2022-09-28T20:31:36.448Z,28.78
2022-09-28T20:34:18.749Z,28.73
2022-09-28T20:37:07.424Z,28.69
2022-09-28T20:39:49.937Z,28.68
2022-09-28T20:42:39.421Z,28.60
2022-09-28T20:45:21.761Z,28.66
2022-09-28T20:48:14.351Z,28.55
2022-09-28T20:51:19.463Z,28.54
2022-09-28T20:54:08.331Z,28.53
2022-09-28T20:56:59.435Z,28.58
2022-09-28T20:59:54.489Z,28.57
2022-09-28T21:02:38.456Z,28.57
2022-09-28T21:05:27.409Z,28.51
2022-09-28T21:08:09.803Z,28.45
2022-09-28T21:11:01.443Z,28.54
2022-09-28T21:13:44.006Z,28.48
2022-09-28T21:16:34.435Z,28.55
2022-09-28T21:19:16.705Z,28.53
2022-09-28T21:22:05.445Z,28.53
2022-09-28T21:24:54.412Z,28.55
2022-09-28T21:27:43.444Z,28.54
2022-09-28T21:30:32.427Z,28.57
2022-09-28T21:33:14.714Z,28.57
2022-09-28T21:36:03.452Z,28.52
2022-09-28T21:38:47.224Z,28.50
2022-09-28T21:41:37.287Z,28.50
2022-09-28T21:44:26.773Z,28.49
2022-09-28T21:47:08.450Z,28.50
2022-09-28T21:50:03.292Z,28.42
2022-09-28T21:52:54.342Z,28.45
2022-09-28T21:55:36.726Z,28.47
2022-09-28T21:58:25.436Z,28.52
2022-09-28T22:01:09.792Z,28.39
2022-09-28T22:04:00.334Z,28.38
2022-09-28T22:06:50.862Z,28.34
2022-09-28T22:09:39.734Z,28.35
2022-09-28T22:12:22.483Z,28.36
2022-09-28T22:15:06.314Z,28.39
2022-09-28T22:17:55.443Z,28.37
2022-09-28T22:20:37.683Z,28.35
2022-09-28T22:23:26.345Z,28.35
2022-09-28T22:26:19.459Z,28.31
2022-09-28T22:29:06.889Z,28.26
2022-09-28T22:31:55.557Z,28.26
2022-09-28T22:34:38.864Z,28.24
2022-09-28T22:37:27.336Z,28.23
2022-09-28T22:40:12.226Z,28.10
2022-09-28T22:43:02.433Z,28.10
2022-09-28T22:45:44.790Z,28.14
2022-09-28T22:48:33.446Z,28.12
2022-09-28T22:51:29.354Z,28.22
2022-09-28T22:54:24.441Z,28.20
2022-09-28T22:57:06.745Z,28.11
2022-09-28T22:59:55.434Z,28.04
2022-09-28T23:02:44.468Z,28.06
2022-09-28T23:05:26.645Z,28.03
2022-09-28T23:08:15.430Z,28.01
2022-09-28T23:10:57.665Z,28.01
2022-09-28T23:13:47.351Z,28.03
2022-09-28T23:16:37.417Z,28.00
2022-09-28T23:19:19.799Z,27.99
2022-09-28T23:22:08.503Z,28.02
2022-09-28T23:24:50.736Z,28.08
2022-09-28T23:27:39.619Z,28.00
2022-09-28T23:30:24.295Z,27.98
2022-09-28T23:33:13.340Z,27.95
2022-09-28T23:36:02.346Z,27.98
2022-09-28T23:38:51.732Z,28.03
2022-09-28T23:41:34.438Z,27.97
2022-09-28T23:44:16.610Z,28.01
2022-09-28T23:47:05.452Z,27.96
2022-09-28T23:50:00.303Z,27.95
2022-09-28T23:52:49.343Z,27.98
2022-09-28T23:55:31.699Z,27.87
2022-09-28T23:58:20.446Z,27.87
